< < Back
Terminal Aerodrome Forecast


Current Version              Previous Versions:   1  2  3  4  5  6  7  8  9  

Terminal Aerodrome Forecast

354
FTUS44 KOHX 240500
TAFCSV
TAF
KCSV 240525Z 2406/2506 VRB04KT P6SM SKC
     FM241600 18010KT P6SM SKC
     FM250000 16012KT P6SM BKN070=

Latest METAR

623
SAUS70 KWBC 250100
MTRCSV
METAR KCSV 250053Z AUTO 17004KT 10SM CLR 20/04 A2990 RMK AO2 SLP113
T02000039


USA.gov is the U.S. government's official web portal to all federal, state and local government web resources and services.